sensor_id;sensor_type;location;lat;lon;timestamp;pressure;altitude;pressure_sealevel;temperature;humidity
48390;BME280;34643;47.964;7.982;2023-11-19T00:01:09;96772.81;;;14.96;62.01
48390;BME280;34643;47.964;7.982;2023-11-19T00:06:10;96759.81;;;14.96;62.10
48390;BME280;34643;47.964;7.982;2023-11-19T00:11:11;96778.84;;;14.96;62.09
48390;BME280;34643;47.964;7.982;2023-11-19T00:16:15;96766.75;;;14.95;62.19
48390;BME280;34643;47.964;7.982;2023-11-19T00:21:16;96778.94;;;14.95;62.26
48390;BME280;34643;47.964;7.982;2023-11-19T00:26:16;96773.63;;;14.96;62.13
48390;BME280;34643;47.964;7.982;2023-11-19T00:31:20;96757.31;;;14.94;62.23
48390;BME280;34643;47.964;7.982;2023-11-19T00:36:20;96761.56;;;14.95;62.33
48390;BME280;34643;47.964;7.982;2023-11-19T00:41:21;96750.34;;;14.95;62.31
48390;BME280;34643;47.964;7.982;2023-11-19T00:46:22;96763.25;;;14.96;62.34
48390;BME280;34643;47.964;7.982;2023-11-19T00:51:23;96734.66;;;14.96;62.32
48390;BME280;34643;47.964;7.982;2023-11-19T00:56:23;96732.97;;;14.95;62.30
48390;BME280;34643;47.964;7.982;2023-11-19T01:01:24;96732.88;;;14.97;62.33
48390;BME280;34643;47.964;7.982;2023-11-19T01:06:26;96722.56;;;14.95;62.18
48390;BME280;34643;47.964;7.982;2023-11-19T01:11:27;96706.97;;;14.95;62.46
48390;BME280;34643;47.964;7.982;2023-11-19T01:16:28;96703.47;;;14.96;62.31
48390;BME280;34643;47.964;7.982;2023-11-19T01:21:28;96707.72;;;14.97;62.27
48390;BME280;34643;47.964;7.982;2023-11-19T01:26:28;96700.84;;;14.96;62.45
48390;BME280;34643;47.964;7.982;2023-11-19T01:31:28;96727.69;;;14.97;62.30
48390;BME280;34643;47.964;7.982;2023-11-19T01:36:29;96719.97;;;14.95;62.40
48390;BME280;34643;47.964;7.982;2023-11-19T01:41:29;96726.03;;;14.96;62.57
48390;BME280;34643;47.964;7.982;2023-11-19T01:46:30;96720.81;;;14.96;62.38
48390;BME280;34643;47.964;7.982;2023-11-19T01:51:32;96738.06;;;14.97;62.76
48390;BME280;34643;47.964;7.982;2023-11-19T01:56:34;96740.56;;;14.98;62.81
48390;BME280;34643;47.964;7.982;2023-11-19T02:01:35;96729.13;;;15.01;62.67
48390;BME280;34643;47.964;7.982;2023-11-19T02:06:40;96736.00;;;15.02;62.73
48390;BME280;34643;47.964;7.982;2023-11-19T02:11:40;96724.78;;;15.01;62.81
48390;BME280;34643;47.964;7.982;2023-11-19T02:16:41;96732.50;;;15.03;62.71
48390;BME280;34643;47.964;7.982;2023-11-19T02:21:41;96726.44;;;15.02;62.97
48390;BME280;34643;47.964;7.982;2023-11-19T02:31:42;96701.28;;;15.03;62.78
48390;BME280;34643;47.964;7.982;2023-11-19T02:36:43;96708.25;;;15.02;63.05
48390;BME280;34643;47.964;7.982;2023-11-19T02:41:43;96708.25;;;15.02;62.88
48390;BME280;34643;47.964;7.982;2023-11-19T02:46:43;96705.63;;;15.02;63.08
48390;BME280;34643;47.964;7.982;2023-11-19T02:51:43;96712.63;;;15.02;62.75
48390;BME280;34643;47.964;7.982;2023-11-19T02:56:44;96711.78;;;15.01;62.94
48390;BME280;34643;47.964;7.982;2023-11-19T03:01:47;96735.19;;;15.01;62.81
48390;BME280;34643;47.964;7.982;2023-11-19T03:06:50;96742.13;;;15.01;62.75
48390;BME280;34643;47.964;7.982;2023-11-19T03:11:50;96735.19;;;15.01;62.77
48390;BME280;34643;47.964;7.982;2023-11-19T03:16:50;96727.38;;;15.01;62.85
48390;BME280;34643;47.964;7.982;2023-11-19T03:21:51;96711.88;;;15.00;62.82
48390;BME280;34643;47.964;7.982;2023-11-19T03:26:51;96705.88;;;14.99;62.97
48390;BME280;34643;47.964;7.982;2023-11-19T03:31:51;96704.91;;;15.00;62.77
48390;BME280;34643;47.964;7.982;2023-11-19T03:36:52;96711.88;;;15.00;62.66
48390;BME280;34643;47.964;7.982;2023-11-19T03:41:52;96723.09;;;15.00;62.80
48390;BME280;34643;47.964;7.982;2023-11-19T03:46:52;96727.47;;;15.00;62.76
48390;BME280;34643;47.964;7.982;2023-11-19T03:51:52;96720.59;;;14.99;62.74
48390;BME280;34643;47.964;7.982;2023-11-19T03:56:53;96732.78;;;14.98;62.78
48390;BME280;34643;47.964;7.982;2023-11-19T04:01:53;96732.78;;;14.98;62.82
48390;BME280;34643;47.964;7.982;2023-11-19T04:06:55;96745.88;;;14.97;62.92
48390;BME280;34643;47.964;7.982;2023-11-19T04:11:56;96751.06;;;14.97;62.68
48390;BME280;34643;47.964;7.982;2023-11-19T04:16:56;96753.66;;;14.97;62.70
48390;BME280;34643;47.964;7.982;2023-11-19T04:21:56;96729.34;;;14.98;62.79
48390;BME280;34643;47.964;7.982;2023-11-19T04:26:57;96739.75;;;14.98;63.15
48390;BME280;34643;47.964;7.982;2023-11-19T04:31:58;96725.91;;;14.97;62.86
48390;BME280;34643;47.964;7.982;2023-11-19T04:36:59;96749.19;;;14.99;62.81
48390;BME280;34643;47.964;7.982;2023-11-19T04:42:02;96744.00;;;14.99;62.89
48390;BME280;34643;47.964;7.982;2023-11-19T04:47:02;96724.16;;;14.98;62.93
48390;BME280;34643;47.964;7.982;2023-11-19T04:52:03;96733.69;;;14.97;62.94
48390;BME280;34643;47.964;7.982;2023-11-19T04:57:03;96734.56;;;14.98;62.96
48390;BME280;34643;47.964;7.982;2023-11-19T05:02:04;96739.75;;;14.98;62.64
48390;BME280;34643;47.964;7.982;2023-11-19T05:07:04;96720.59;;;14.99;62.94
48390;BME280;34643;47.964;7.982;2023-11-19T05:12:04;96720.69;;;14.97;62.79
48390;BME280;34643;47.964;7.982;2023-11-19T05:17:05;96737.25;;;14.96;62.76
48390;BME280;34643;47.964;7.982;2023-11-19T05:22:05;96736.28;;;14.97;62.94
48390;BME280;34643;47.964;7.982;2023-11-19T05:27:06;96744.09;;;14.97;62.86
48390;BME280;34643;47.964;7.982;2023-11-19T05:32:07;96743.28;;;14.97;62.95
48390;BME280;34643;47.964;7.982;2023-11-19T05:37:08;96735.38;;;14.98;62.79
48390;BME280;34643;47.964;7.982;2023-11-19T05:42:10;96744.09;;;14.97;62.93
48390;BME280;34643;47.964;7.982;2023-11-19T05:47:11;96724.16;;;14.98;63.06
48390;BME280;34643;47.964;7.982;2023-11-19T05:52:11;96739.44;;;15.02;63.00
48390;BME280;34643;47.964;7.982;2023-11-19T05:57:12;96732.38;;;15.05;63.13
48390;BME280;34643;47.964;7.982;2023-11-19T06:02:14;96736.63;;;15.06;63.01
48390;BME280;34643;47.964;7.982;2023-11-19T06:07:14;96725.31;;;15.07;63.25
48390;BME280;34643;47.964;7.982;2023-11-19T06:12:15;96734.75;;;15.08;63.12
48390;BME280;34643;47.964;7.982;2023-11-19T06:17:16;96750.38;;;15.08;63.14
48390;BME280;34643;47.964;7.982;2023-11-19T06:22:16;96752.03;;;15.09;63.13
48390;BME280;34643;47.964;7.982;2023-11-19T06:27:16;96745.06;;;15.09;63.21
48390;BME280;34643;47.964;7.982;2023-11-19T06:32:16;96741.56;;;15.10;63.08
48390;BME280;34643;47.964;7.982;2023-11-19T06:37:17;96739.03;;;15.09;63.11
48390;BME280;34643;47.964;7.982;2023-11-19T06:42:17;96736.34;;;15.10;62.99
48390;BME280;34643;47.964;7.982;2023-11-19T06:47:17;96737.28;;;15.09;62.95
48390;BME280;34643;47.964;7.982;2023-11-19T06:52:18;96741.56;;;15.10;62.78
48390;BME280;34643;47.964;7.982;2023-11-19T06:57:18;96718.16;;;15.10;63.13
48390;BME280;34643;47.964;7.982;2023-11-19T07:02:20;96741.84;;;15.18;63.08
48390;BME280;34643;47.964;7.982;2023-11-19T07:07:20;96749.38;;;15.23;63.24
48390;BME280;34643;47.964;7.982;2023-11-19T07:12:20;96747.59;;;15.36;63.40
48390;BME280;34643;47.964;7.982;2023-11-19T07:17:21;96755.63;;;15.33;63.46
48390;BME280;34643;47.964;7.982;2023-11-19T07:22:21;96762.81;;;15.30;63.41
48390;BME280;34643;47.964;7.982;2023-11-19T07:27:22;96766.94;;;15.32;63.51
48390;BME280;34643;47.964;7.982;2023-11-19T07:32:24;96762.38;;;15.36;63.40
48390;BME280;34643;47.964;7.982;2023-11-19T07:37:24;96762.47;;;15.34;63.53
48390;BME280;34643;47.964;7.982;2023-11-19T07:42:25;96763.34;;;15.35;63.28
48390;BME280;34643;47.964;7.982;2023-11-19T07:47:25;96768.53;;;15.35;63.42
48390;BME280;34643;47.964;7.982;2023-11-19T07:52:25;96774.56;;;15.35;63.32
48390;BME280;34643;47.964;7.982;2023-11-19T07:57:25;96782.38;;;15.35;63.26
48390;BME280;34643;47.964;7.982;2023-11-19T08:02:27;96790.16;;;15.35;63.03
48390;BME280;34643;47.964;7.982;2023-11-19T08:07:28;96792.88;;;15.34;63.11
48390;BME280;34643;47.964;7.982;2023-11-19T08:12:28;96792.78;;;15.35;63.13
48390;BME280;34643;47.964;7.982;2023-11-19T08:17:28;96793.69;;;15.34;63.23
48390;BME280;34643;47.964;7.982;2023-11-19T08:22:29;96804.09;;;15.34;63.07
48390;BME280;34643;47.964;7.982;2023-11-19T08:27:29;96800.66;;;15.34;63.16
48390;BME280;34643;47.964;7.982;2023-11-19T08:32:29;96804.09;;;15.34;63.03
48390;BME280;34643;47.964;7.982;2023-11-19T08:37:29;96794.63;;;15.33;63.04
48390;BME280;34643;47.964;7.982;2023-11-19T08:42:30;96805.78;;;15.35;62.89
48390;BME280;34643;47.964;7.982;2023-11-19T08:47:30;96797.25;;;15.33;62.91
48390;BME280;34643;47.964;7.982;2023-11-19T08:52:30;96796.38;;;15.33;62.81
48390;BME280;34643;47.964;7.982;2023-11-19T08:57:31;96794.53;;;15.35;62.82
48390;BME280;34643;47.964;7.982;2023-11-19T09:02:31;96799.75;;;15.35;62.72
48390;BME280;34643;47.964;7.982;2023-11-19T09:07:32;96797.16;;;15.35;62.88
48390;BME280;34643;47.964;7.982;2023-11-19T09:12:32;96807.41;;;15.36;62.97
48390;BME280;34643;47.964;7.982;2023-11-19T09:17:33;96803.72;;;15.40;63.06
48390;BME280;34643;47.964;7.982;2023-11-19T09:22:33;96802.97;;;15.38;63.10
48390;BME280;34643;47.964;7.982;2023-11-19T09:27:33;96826.25;;;15.40;63.10
48390;BME280;34643;47.964;7.982;2023-11-19T09:32:33;96815.03;;;15.39;63.20
48390;BME280;34643;47.964;7.982;2023-11-19T09:37:34;96832.41;;;15.39;63.00
48390;BME280;34643;47.964;7.982;2023-11-19T09:42:44;96827.94;;;15.41;63.10
48390;BME280;34643;47.964;7.982;2023-11-19T09:47:47;96824.28;;;15.44;63.03
48390;BME280;34643;47.964;7.982;2023-11-19T09:52:52;96814.66;;;15.46;62.91
48390;BME280;34643;47.964;7.982;2023-11-19T09:57:52;96820.56;;;15.48;62.93
48390;BME280;34643;47.964;7.982;2023-11-19T10:02:53;96814.31;;;15.50;62.84
48390;BME280;34643;47.964;7.982;2023-11-19T10:07:54;96823.56;;;15.54;62.78
48390;BME280;34643;47.964;7.982;2023-11-19T10:12:55;96812.25;;;15.55;62.67
48390;BME280;34643;47.964;7.982;2023-11-19T10:17:56;96807.88;;;15.56;62.70
48390;BME280;34643;47.964;7.982;2023-11-19T10:22:57;96818.00;;;15.61;62.84
48390;BME280;34643;47.964;7.982;2023-11-19T10:27:58;96809.88;;;15.65;62.72
48390;BME280;34643;47.964;7.982;2023-11-19T10:33:11;96808.84;;;15.68;62.86
48390;BME280;34643;47.964;7.982;2023-11-19T10:38:17;96808.72;;;15.69;62.92
48390;BME280;34643;47.964;7.982;2023-11-19T10:43:18;96786.03;;;15.71;62.62
48390;BME280;34643;47.964;7.982;2023-11-19T10:48:18;96786.88;;;15.72;62.89
48390;BME280;34643;47.964;7.982;2023-11-19T10:53:19;96787.53;;;15.75;62.52
48390;BME280;34643;47.964;7.982;2023-11-19T10:58:21;96785.88;;;15.74;62.68
48390;BME280;34643;47.964;7.982;2023-11-19T11:03:21;96779.63;;;15.77;62.68
48390;BME280;34643;47.964;7.982;2023-11-19T11:08:24;96774.31;;;15.78;62.77
48390;BME280;34643;47.964;7.982;2023-11-19T11:13:25;96779.31;;;15.82;62.60
48390;BME280;34643;47.964;7.982;2023-11-19T11:18:29;96777.34;;;15.85;62.53
48390;BME280;34643;47.964;7.982;2023-11-19T11:23:52;96772.03;;;15.87;62.52
48390;BME280;34643;47.964;7.982;2023-11-19T11:29:01;96773.56;;;15.89;62.59
48390;BME280;34643;47.964;7.982;2023-11-19T11:34:12;96768.28;;;15.91;62.64
48390;BME280;34643;47.964;7.982;2023-11-19T11:39:15;96770.88;;;15.91;62.82
48390;BME280;34643;47.964;7.982;2023-11-19T11:44:16;96770.88;;;15.91;62.62
48390;BME280;34643;47.964;7.982;2023-11-19T11:49:16;96759.53;;;15.92;62.70
48390;BME280;34643;47.964;7.982;2023-11-19T11:59:25;96765.66;;;15.91;62.59
48390;BME280;34643;47.964;7.982;2023-11-19T12:04:28;96757.84;;;15.91;62.79
48390;BME280;34643;47.964;7.982;2023-11-19T12:09:28;96755.25;;;15.91;62.71
48390;BME280;34643;47.964;7.982;2023-11-19T12:19:47;96757.75;;;15.92;62.63
48390;BME280;34643;47.964;7.982;2023-11-19T12:24:48;96754.44;;;15.90;62.49
48390;BME280;34643;47.964;7.982;2023-11-19T12:29:50;96750.06;;;15.91;62.48
48390;BME280;34643;47.964;7.982;2023-11-19T12:34:51;96731.63;;;15.94;62.45
48390;BME280;34643;47.964;7.982;2023-11-19T12:39:51;96745.56;;;15.93;62.57
48390;BME280;34643;47.964;7.982;2023-11-19T12:44:55;96734.22;;;15.94;62.47
48390;BME280;34643;47.964;7.982;2023-11-19T12:49:56;96735.88;;;15.95;62.42
48390;BME280;34643;47.964;7.982;2023-11-19T12:54:57;96742.75;;;15.96;62.32
48390;BME280;34643;47.964;7.982;2023-11-19T12:59:58;96739.34;;;15.95;62.38
48390;BME280;34643;47.964;7.982;2023-11-19T13:04:58;96731.53;;;15.95;62.39
48390;BME280;34643;47.964;7.982;2023-11-19T13:10:02;96726.19;;;15.97;62.57
48390;BME280;34643;47.964;7.982;2023-11-19T13:15:02;96729.63;;;15.98;62.41
48390;BME280;34643;47.964;7.982;2023-11-19T13:20:02;96734.00;;;15.97;62.36
48390;BME280;34643;47.964;7.982;2023-11-19T13:25:03;96727.84;;;15.98;62.51
48390;BME280;34643;47.964;7.982;2023-11-19T13:30:05;96712.25;;;15.98;62.34
48390;BME280;34643;47.964;7.982;2023-11-19T13:35:06;96714.03;;;15.98;62.30
48390;BME280;34643;47.964;7.982;2023-11-19T13:40:09;96706.94;;;16.00;62.29
48390;BME280;34643;47.964;7.982;2023-11-19T13:45:15;96699.13;;;16.00;62.51
48390;BME280;34643;47.964;7.982;2023-11-19T13:50:17;96685.03;;;16.02;62.28
48390;BME280;34643;47.964;7.982;2023-11-19T13:55:18;96687.66;;;16.02;62.32
48390;BME280;34643;47.964;7.982;2023-11-19T14:00:18;96683.19;;;16.04;62.34
48390;BME280;34643;47.964;7.982;2023-11-19T14:07:01;96675.38;;;16.04;62.34
48390;BME280;34643;47.964;7.982;2023-11-19T14:12:02;96668.41;;;16.05;62.19
48390;BME280;34643;47.964;7.982;2023-11-19T14:17:03;96677.97;;;16.04;62.42
48390;BME280;34643;47.964;7.982;2023-11-19T14:22:03;96678.81;;;16.05;62.31
48390;BME280;34643;47.964;7.982;2023-11-19T14:27:03;96698.81;;;16.04;62.35
48390;BME280;34643;47.964;7.982;2023-11-19T14:32:04;96684.84;;;16.05;62.30
48390;BME280;34643;47.964;7.982;2023-11-19T14:37:04;96684.00;;;16.05;62.20
48390;BME280;34643;47.964;7.982;2023-11-19T14:42:05;96684.94;;;16.04;62.22
48390;BME280;34643;47.964;7.982;2023-11-19T14:47:05;96684.94;;;16.04;62.32
48390;BME280;34643;47.964;7.982;2023-11-19T14:52:05;96691.94;;;16.03;62.12
48390;BME280;34643;47.964;7.982;2023-11-19T14:57:06;96714.63;;;16.01;62.34
48390;BME280;34643;47.964;7.982;2023-11-19T15:02:08;96708.47;;;16.02;62.06
48390;BME280;34643;47.964;7.982;2023-11-19T15:07:08;96706.72;;;16.03;62.33
48390;BME280;34643;47.964;7.982;2023-11-19T15:12:08;96712.03;;;16.01;62.10
48390;BME280;34643;47.964;7.982;2023-11-19T15:17:09;96710.34;;;16.00;62.25
48390;BME280;34643;47.964;7.982;2023-11-19T15:22:09;96694.72;;;16.00;62.04
48390;BME280;34643;47.964;7.982;2023-11-19T15:27:11;96706.09;;;15.99;62.21
48390;BME280;34643;47.964;7.982;2023-11-19T15:32:12;96686.94;;;16.00;62.37
48390;BME280;34643;47.964;7.982;2023-11-19T15:37:12;96706.00;;;16.01;62.19
48390;BME280;34643;47.964;7.982;2023-11-19T15:42:14;96703.59;;;15.98;61.81
48390;BME280;34643;47.964;7.982;2023-11-19T15:47:14;96701.81;;;15.98;62.25
48390;BME280;34643;47.964;7.982;2023-11-19T15:52:15;96678.41;;;15.98;62.11
48390;BME280;34643;47.964;7.982;2023-11-19T15:57:15;96692.34;;;15.97;62.21
48390;BME280;34643;47.964;7.982;2023-11-19T16:02:17;96681.94;;;15.97;62.00
48390;BME280;34643;47.964;7.982;2023-11-19T16:07:17;96699.31;;;15.96;62.06
48390;BME280;34643;47.964;7.982;2023-11-19T16:12:17;96682.78;;;15.98;62.01
48390;BME280;34643;47.964;7.982;2023-11-19T16:17:17;96703.59;;;15.98;61.94
48390;BME280;34643;47.964;7.982;2023-11-19T16:22:18;96707.97;;;15.97;62.00
48390;BME280;34643;47.964;7.982;2023-11-19T16:27:18;96710.56;;;15.97;61.99
48390;BME280;34643;47.964;7.982;2023-11-19T16:32:18;96713.16;;;15.97;62.06
48390;BME280;34643;47.964;7.982;2023-11-19T16:37:18;96721.94;;;15.96;62.03
48390;BME280;34643;47.964;7.982;2023-11-19T16:42:21;96718.59;;;15.94;62.01
48390;BME280;34643;47.964;7.982;2023-11-19T16:47:22;96706.31;;;15.96;61.92
48390;BME280;34643;47.964;7.982;2023-11-19T16:52:22;96720.25;;;15.95;61.97
48390;BME280;34643;47.964;7.982;2023-11-19T16:57:22;96707.25;;;15.95;61.92
48390;BME280;34643;47.964;7.982;2023-11-19T17:02:23;96707.25;;;15.95;61.81
48390;BME280;34643;47.964;7.982;2023-11-19T17:07:24;96703.00;;;15.94;61.82
48390;BME280;34643;47.964;7.982;2023-11-19T17:12:25;96711.72;;;15.93;61.80
48390;BME280;34643;47.964;7.982;2023-11-19T17:17:35;96724.84;;;15.91;61.79
48390;BME280;34643;47.964;7.982;2023-11-19T17:22:36;96737.75;;;15.93;61.67
48390;BME280;34643;47.964;7.982;2023-11-19T17:27:37;96736.09;;;15.92;61.84
48390;BME280;34643;47.964;7.982;2023-11-19T17:32:38;96733.50;;;15.92;61.77
48390;BME280;34643;47.964;7.982;2023-11-19T17:37:38;96733.50;;;15.92;61.72
48390;BME280;34643;47.964;7.982;2023-11-19T17:42:39;96729.22;;;15.91;61.66
48390;BME280;34643;47.964;7.982;2023-11-19T17:47:40;96725.81;;;15.90;61.79
48390;BME280;34643;47.964;7.982;2023-11-19T17:52:40;96737.13;;;15.89;61.78
48390;BME280;34643;47.964;7.982;2023-11-19T17:57:40;96729.31;;;15.89;61.70
48390;BME280;34643;47.964;7.982;2023-11-19T18:02:44;96742.34;;;15.89;61.71
48390;BME280;34643;47.964;7.982;2023-11-19T18:07:45;96748.50;;;15.88;61.72
48390;BME280;34643;47.964;7.982;2023-11-19T18:12:46;96763.16;;;15.89;61.70
48390;BME280;34643;47.964;7.982;2023-11-19T18:17:46;96767.53;;;15.89;61.94
48390;BME280;34643;47.964;7.982;2023-11-19T18:22:46;96762.75;;;15.95;61.63
48390;BME280;34643;47.964;7.982;2023-11-19T18:27:47;96781.72;;;15.98;61.90
48390;BME280;34643;47.964;7.982;2023-11-19T18:32:48;96796.28;;;16.00;61.81
48390;BME280;34643;47.964;7.982;2023-11-19T18:37:48;96798.66;;;16.03;62.09
48390;BME280;34643;47.964;7.982;2023-11-19T18:42:48;96812.94;;;16.10;62.20
48390;BME280;34643;47.964;7.982;2023-11-19T18:47:49;96816.69;;;16.19;63.17
48390;BME280;34643;47.964;7.982;2023-11-19T18:52:52;96797.50;;;16.33;63.42
48390;BME280;34643;47.964;7.982;2023-11-19T18:57:52;96802.47;;;16.36;63.52
48390;BME280;34643;47.964;7.982;2023-11-19T19:02:53;96803.84;;;16.42;64.05
48390;BME280;34643;47.964;7.982;2023-11-19T19:07:53;96813.91;;;16.46;63.75
48390;BME280;34643;47.964;7.982;2023-11-19T19:12:56;96814.88;;;16.45;64.60
48390;BME280;34643;47.964;7.982;2023-11-19T19:17:57;96817.84;;;16.52;64.57
48390;BME280;34643;47.964;7.982;2023-11-19T19:22:57;96816.84;;;16.54;64.45
48390;BME280;34643;47.964;7.982;2023-11-19T19:27:57;96812.53;;;16.53;64.06
48390;BME280;34643;47.964;7.982;2023-11-19T19:32:58;96804.72;;;16.53;64.81
48390;BME280;34643;47.964;7.982;2023-11-19T19:37:58;96808.06;;;16.56;64.72
48390;BME280;34643;47.964;7.982;2023-11-19T19:42:59;96808.06;;;16.56;64.88
48390;BME280;34643;47.964;7.982;2023-11-19T19:47:59;96816.63;;;16.58;64.81
48390;BME280;34643;47.964;7.982;2023-11-19T19:53:00;96825.06;;;16.61;64.94
48390;BME280;34643;47.964;7.982;2023-11-19T19:58:00;96832.03;;;16.61;65.18
48390;BME280;34643;47.964;7.982;2023-11-19T20:03:01;96824.91;;;16.63;65.47
48390;BME280;34643;47.964;7.982;2023-11-19T20:08:02;96819.59;;;16.64;65.50
48390;BME280;34643;47.964;7.982;2023-11-19T20:13:03;96826.59;;;16.64;65.08
48390;BME280;34643;47.964;7.982;2023-11-19T20:18:09;96815.97;;;16.67;65.54
48390;BME280;34643;47.964;7.982;2023-11-19T20:23:12;96818.47;;;16.68;65.67
48390;BME280;34643;47.964;7.982;2023-11-19T20:28:12;96808.75;;;16.70;65.42
48390;BME280;34643;47.964;7.982;2023-11-19T20:33:13;96813.88;;;16.72;65.67
48390;BME280;34643;47.964;7.982;2023-11-19T20:38:13;96813.75;;;16.73;65.52
48390;BME280;34643;47.964;7.982;2023-11-19T20:43:14;96802.16;;;16.78;65.77
48390;BME280;34643;47.964;7.982;2023-11-19T20:48:15;96795.06;;;16.80;65.91
48390;BME280;34643;47.964;7.982;2023-11-19T20:53:35;96795.88;;;16.80;65.71
48390;BME280;34643;47.964;7.982;2023-11-19T20:58:36;96794.97;;;16.81;65.83
48390;BME280;34643;47.964;7.982;2023-11-19T21:03:42;96793.19;;;16.82;65.83
48390;BME280;34643;47.964;7.982;2023-11-19T21:08:50;96786.09;;;16.84;66.02
48390;BME280;34643;47.964;7.982;2023-11-19T21:13:51;96790.50;;;16.83;66.09
48390;BME280;34643;47.964;7.982;2023-11-19T21:18:51;96777.34;;;16.85;65.79
48390;BME280;34643;47.964;7.982;2023-11-19T21:23:52;96792.88;;;16.86;65.83
48390;BME280;34643;47.964;7.982;2023-11-19T21:28:52;96779.97;;;16.85;66.16
48390;BME280;34643;47.964;7.982;2023-11-19T21:33:55;96795.50;;;16.86;65.92
48390;BME280;34643;47.964;7.982;2023-11-19T21:38:55;96794.53;;;16.87;65.82
48390;BME280;34643;47.964;7.982;2023-11-19T21:43:56;96792.69;;;16.89;65.83
48390;BME280;34643;47.964;7.982;2023-11-19T21:48:56;96804.03;;;16.88;65.37
48390;BME280;34643;47.964;7.982;2023-11-19T21:53:56;96802.16;;;16.90;65.29
48390;BME280;34643;47.964;7.982;2023-11-19T21:58:56;96817.78;;;16.90;65.58
48390;BME280;34643;47.964;7.982;2023-11-19T22:03:57;96802.97;;;16.91;65.43
48390;BME280;34643;47.964;7.982;2023-11-19T22:08:57;96794.09;;;16.94;65.75
48390;BME280;34643;47.964;7.982;2023-11-19T22:13:58;96807.25;;;16.92;65.54
48390;BME280;34643;47.964;7.982;2023-11-19T22:18:58;96811.75;;;16.90;65.36
48390;BME280;34643;47.964;7.982;2023-11-19T22:23:59;96785.78;;;16.88;65.29
48390;BME280;34643;47.964;7.982;2023-11-19T22:28:59;96797.16;;;16.87;65.37
48390;BME280;34643;47.964;7.982;2023-11-19T22:34:02;96789.31;;;16.87;64.91
48390;BME280;34643;47.964;7.982;2023-11-19T22:39:03;96805.94;;;16.86;65.04
48390;BME280;34643;47.964;7.982;2023-11-19T22:44:03;96795.50;;;16.86;64.70
48390;BME280;34643;47.964;7.982;2023-11-19T22:49:04;96794.63;;;16.86;64.86
48390;BME280;34643;47.964;7.982;2023-11-19T22:54:07;96794.53;;;16.87;64.70
48390;BME280;34643;47.964;7.982;2023-11-19T22:59:08;96781.59;;;16.86;64.53
48390;BME280;34643;47.964;7.982;2023-11-19T23:04:08;96786.81;;;16.86;64.53
48390;BME280;34643;47.964;7.982;2023-11-19T23:09:09;96785.19;;;16.85;64.65
48390;BME280;34643;47.964;7.982;2023-11-19T23:14:10;96783.38;;;16.85;64.67
48390;BME280;34643;47.964;7.982;2023-11-19T23:19:13;96789.56;;;16.84;64.59
48390;BME280;34643;47.964;7.982;2023-11-19T23:24:13;96784.22;;;16.86;64.70
48390;BME280;34643;47.964;7.982;2023-11-19T23:29:13;96791.09;;;16.87;64.71
48390;BME280;34643;47.964;7.982;2023-11-19T23:34:14;96798.09;;;16.86;64.69
48390;BME280;34643;47.964;7.982;2023-11-19T23:39:14;96792.88;;;16.86;64.31
48390;BME280;34643;47.964;7.982;2023-11-19T23:44:15;96794.63;;;16.86;64.42
48390;BME280;34643;47.964;7.982;2023-11-19T23:49:16;96794.63;;;16.86;64.66
48390;BME280;34643;47.964;7.982;2023-11-19T23:54:16;96788.50;;;16.87;64.43
48390;BME280;34643;47.964;7.982;2023-11-19T23:59:17;96774.63;;;16.86;64.53
